sensor_id;sensor_type;location;lat;lon;timestamp;P1;durP1;ratioP1;P2;durP2;ratioP2
1360;SDS011;674;45.552;-122.600;2023-04-29T00:01:45;3.30;;;1.70;;
1360;SDS011;674;45.552;-122.600;2023-04-29T00:04:14;3.77;;;2.00;;
1360;SDS011;674;45.552;-122.600;2023-04-29T00:06:43;4.63;;;2.10;;
1360;SDS011;674;45.552;-122.600;2023-04-29T00:09:12;15.33;;;3.90;;
1360;SDS011;674;45.552;-122.600;2023-04-29T00:11:40;9.03;;;2.40;;
1360;SDS011;674;45.552;-122.600;2023-04-29T00:14:09;11.17;;;2.00;;
1360;SDS011;674;45.552;-122.600;2023-04-29T00:16:37;4.03;;;1.83;;
1360;SDS011;674;45.552;-122.600;2023-04-29T00:19:06;3.20;;;1.80;;
1360;SDS011;674;45.552;-122.600;2023-04-29T00:21:34;4.60;;;2.30;;
1360;SDS011;674;45.552;-122.600;2023-04-29T00:24:02;5.50;;;2.30;;
1360;SDS011;674;45.552;-122.600;2023-04-29T00:26:31;9.33;;;2.30;;
1360;SDS011;674;45.552;-122.600;2023-04-29T00:29:01;4.70;;;2.03;;
1360;SDS011;674;45.552;-122.600;2023-04-29T00:31:29;2.80;;;1.33;;
1360;SDS011;674;45.552;-122.600;2023-04-29T00:33:59;4.40;;;1.90;;
1360;SDS011;674;45.552;-122.600;2023-04-29T00:36:27;4.37;;;2.33;;
1360;SDS011;674;45.552;-122.600;2023-04-29T00:38:58;4.03;;;2.33;;
1360;SDS011;674;45.552;-122.600;2023-04-29T00:41:26;3.50;;;2.07;;
1360;SDS011;674;45.552;-122.600;2023-04-29T00:43:54;5.10;;;2.27;;
1360;SDS011;674;45.552;-122.600;2023-04-29T00:46:23;5.83;;;2.10;;
1360;SDS011;674;45.552;-122.600;2023-04-29T00:48:51;5.70;;;2.03;;
1360;SDS011;674;45.552;-122.600;2023-04-29T00:51:20;4.47;;;2.00;;
1360;SDS011;674;45.552;-122.600;2023-04-29T00:53:48;4.33;;;2.07;;
1360;SDS011;674;45.552;-122.600;2023-04-29T00:56:17;12.40;;;2.40;;
1360;SDS011;674;45.552;-122.600;2023-04-29T00:58:47;4.00;;;2.03;;
1360;SDS011;674;45.552;-122.600;2023-04-29T01:01:19;6.20;;;2.20;;
1360;SDS011;674;45.552;-122.600;2023-04-29T01:03:48;4.20;;;2.20;;
1360;SDS011;674;45.552;-122.600;2023-04-29T01:12:19;6.70;;;2.63;;
1360;SDS011;674;45.552;-122.600;2023-04-29T01:20:46;8.60;;;2.10;;
1360;SDS011;674;45.552;-122.600;2023-04-29T01:23:15;6.80;;;2.33;;
1360;SDS011;674;45.552;-122.600;2023-04-29T01:25:43;6.13;;;1.93;;
1360;SDS011;674;45.552;-122.600;2023-04-29T01:34:00;4.10;;;1.90;;
1360;SDS011;674;45.552;-122.600;2023-04-29T01:44:52;6.33;;;2.20;;
1360;SDS011;674;45.552;-122.600;2023-04-29T01:47:23;3.70;;;1.87;;
1360;SDS011;674;45.552;-122.600;2023-04-29T01:49:53;8.27;;;2.60;;
1360;SDS011;674;45.552;-122.600;2023-04-29T01:52:22;5.40;;;2.17;;
1360;SDS011;674;45.552;-122.600;2023-04-29T01:54:50;5.13;;;1.97;;
1360;SDS011;674;45.552;-122.600;2023-04-29T01:57:19;8.13;;;2.17;;
1360;SDS011;674;45.552;-122.600;2023-04-29T01:59:47;3.50;;;1.60;;
1360;SDS011;674;45.552;-122.600;2023-04-29T02:02:16;5.20;;;1.90;;
1360;SDS011;674;45.552;-122.600;2023-04-29T02:04:48;4.10;;;1.70;;
1360;SDS011;674;45.552;-122.600;2023-04-29T02:07:19;3.70;;;2.10;;
1360;SDS011;674;45.552;-122.600;2023-04-29T02:09:48;3.57;;;1.60;;
1360;SDS011;674;45.552;-122.600;2023-04-29T02:12:17;6.27;;;1.67;;
1360;SDS011;674;45.552;-122.600;2023-04-29T02:14:45;6.03;;;1.57;;
1360;SDS011;674;45.552;-122.600;2023-04-29T02:17:14;4.13;;;1.70;;
1360;SDS011;674;45.552;-122.600;2023-04-29T02:19:42;4.50;;;2.00;;
1360;SDS011;674;45.552;-122.600;2023-04-29T02:22:11;4.33;;;1.87;;
1360;SDS011;674;45.552;-122.600;2023-04-29T02:24:39;3.80;;;1.93;;
1360;SDS011;674;45.552;-122.600;2023-04-29T02:27:08;3.70;;;1.60;;
1360;SDS011;674;45.552;-122.600;2023-04-29T02:29:36;7.67;;;2.53;;
1360;SDS011;674;45.552;-122.600;2023-04-29T02:32:04;5.47;;;1.83;;
1360;SDS011;674;45.552;-122.600;2023-04-29T02:34:33;3.90;;;1.80;;
1360;SDS011;674;45.552;-122.600;2023-04-29T02:37:02;3.10;;;1.60;;
1360;SDS011;674;45.552;-122.600;2023-04-29T02:39:31;6.07;;;1.73;;
1360;SDS011;674;45.552;-122.600;2023-04-29T02:41:59;3.27;;;1.97;;
1360;SDS011;674;45.552;-122.600;2023-04-29T02:44:28;5.43;;;2.10;;
1360;SDS011;674;45.552;-122.600;2023-04-29T02:46:57;5.23;;;2.07;;
1360;SDS011;674;45.552;-122.600;2023-04-29T02:49:26;4.50;;;1.80;;
1360;SDS011;674;45.552;-122.600;2023-04-29T02:51:54;5.63;;;2.27;;
1360;SDS011;674;45.552;-122.600;2023-04-29T02:54:23;4.53;;;2.00;;
1360;SDS011;674;45.552;-122.600;2023-04-29T02:56:51;7.00;;;1.90;;
1360;SDS011;674;45.552;-122.600;2023-04-29T02:59:20;4.97;;;2.00;;
1360;SDS011;674;45.552;-122.600;2023-04-29T03:01:48;3.90;;;1.60;;
1360;SDS011;674;45.552;-122.600;2023-04-29T03:04:17;6.73;;;1.90;;
1360;SDS011;674;45.552;-122.600;2023-04-29T03:06:46;6.03;;;1.77;;
1360;SDS011;674;45.552;-122.600;2023-04-29T03:09:15;5.03;;;2.00;;
1360;SDS011;674;45.552;-122.600;2023-04-29T03:11:43;3.83;;;1.60;;
1360;SDS011;674;45.552;-122.600;2023-04-29T03:14:12;3.70;;;1.90;;
1360;SDS011;674;45.552;-122.600;2023-04-29T03:16:41;3.80;;;2.07;;
1360;SDS011;674;45.552;-122.600;2023-04-29T03:19:09;6.90;;;1.80;;
1360;SDS011;674;45.552;-122.600;2023-04-29T03:21:38;6.83;;;2.10;;
1360;SDS011;674;45.552;-122.600;2023-04-29T03:24:06;4.53;;;2.20;;
1360;SDS011;674;45.552;-122.600;2023-04-29T03:26:35;7.43;;;1.97;;
1360;SDS011;674;45.552;-122.600;2023-04-29T03:29:03;9.07;;;2.23;;
1360;SDS011;674;45.552;-122.600;2023-04-29T03:31:31;4.27;;;2.00;;
1360;SDS011;674;45.552;-122.600;2023-04-29T03:34:00;4.90;;;2.00;;
1360;SDS011;674;45.552;-122.600;2023-04-29T03:36:28;5.97;;;2.30;;
1360;SDS011;674;45.552;-122.600;2023-04-29T03:38:57;5.87;;;2.50;;
1360;SDS011;674;45.552;-122.600;2023-04-29T03:41:25;3.90;;;2.00;;
1360;SDS011;674;45.552;-122.600;2023-04-29T03:43:54;3.10;;;1.50;;
1360;SDS011;674;45.552;-122.600;2023-04-29T03:46:26;3.10;;;1.47;;
1360;SDS011;674;45.552;-122.600;2023-04-29T03:48:55;4.20;;;1.93;;
1360;SDS011;674;45.552;-122.600;2023-04-29T03:51:24;6.07;;;1.93;;
1360;SDS011;674;45.552;-122.600;2023-04-29T03:53:53;3.23;;;1.73;;
1360;SDS011;674;45.552;-122.600;2023-04-29T03:56:24;4.67;;;1.73;;
1360;SDS011;674;45.552;-122.600;2023-04-29T03:58:52;6.53;;;2.17;;
1360;SDS011;674;45.552;-122.600;2023-04-29T04:01:21;9.50;;;2.07;;
1360;SDS011;674;45.552;-122.600;2023-04-29T04:03:49;4.27;;;2.33;;
1360;SDS011;674;45.552;-122.600;2023-04-29T04:06:19;5.33;;;2.40;;
1360;SDS011;674;45.552;-122.600;2023-04-29T04:08:47;3.57;;;1.97;;
1360;SDS011;674;45.552;-122.600;2023-04-29T04:11:16;4.80;;;2.40;;
1360;SDS011;674;45.552;-122.600;2023-04-29T04:13:44;4.50;;;1.87;;
1360;SDS011;674;45.552;-122.600;2023-04-29T04:16:13;4.60;;;1.90;;
1360;SDS011;674;45.552;-122.600;2023-04-29T04:18:41;3.30;;;1.77;;
1360;SDS011;674;45.552;-122.600;2023-04-29T04:21:10;5.50;;;2.30;;
1360;SDS011;674;45.552;-122.600;2023-04-29T04:23:39;8.77;;;4.17;;
1360;SDS011;674;45.552;-122.600;2023-04-29T04:26:08;9.20;;;3.17;;
1360;SDS011;674;45.552;-122.600;2023-04-29T04:28:36;10.07;;;3.97;;
1360;SDS011;674;45.552;-122.600;2023-04-29T04:31:05;9.93;;;4.90;;
1360;SDS011;674;45.552;-122.600;2023-04-29T04:33:34;5.03;;;2.43;;
1360;SDS011;674;45.552;-122.600;2023-04-29T04:36:03;5.77;;;3.10;;
1360;SDS011;674;45.552;-122.600;2023-04-29T04:38:31;4.50;;;2.30;;
1360;SDS011;674;45.552;-122.600;2023-04-29T04:41:00;6.10;;;2.30;;
1360;SDS011;674;45.552;-122.600;2023-04-29T04:43:28;5.30;;;2.30;;
1360;SDS011;674;45.552;-122.600;2023-04-29T04:45:57;4.80;;;2.30;;
1360;SDS011;674;45.552;-122.600;2023-04-29T04:48:25;4.40;;;2.00;;
1360;SDS011;674;45.552;-122.600;2023-04-29T04:50:54;3.90;;;2.40;;
1360;SDS011;674;45.552;-122.600;2023-04-29T04:53:22;3.90;;;2.00;;
1360;SDS011;674;45.552;-122.600;2023-04-29T04:55:51;5.63;;;1.87;;
1360;SDS011;674;45.552;-122.600;2023-04-29T04:58:19;4.73;;;2.17;;
1360;SDS011;674;45.552;-122.600;2023-04-29T05:00:47;3.80;;;1.90;;
1360;SDS011;674;45.552;-122.600;2023-04-29T05:03:18;6.97;;;3.10;;
1360;SDS011;674;45.552;-122.600;2023-04-29T05:05:56;5.73;;;2.30;;
1360;SDS011;674;45.552;-122.600;2023-04-29T05:08:26;4.03;;;1.70;;
1360;SDS011;674;45.552;-122.600;2023-04-29T05:10:55;7.17;;;1.80;;
1360;SDS011;674;45.552;-122.600;2023-04-29T05:13:24;3.90;;;1.70;;
1360;SDS011;674;45.552;-122.600;2023-04-29T05:15:53;4.30;;;1.87;;
1360;SDS011;674;45.552;-122.600;2023-04-29T05:18:21;4.90;;;2.27;;
1360;SDS011;674;45.552;-122.600;2023-04-29T05:20:50;2.30;;;1.50;;
1360;SDS011;674;45.552;-122.600;2023-04-29T05:23:18;8.10;;;2.07;;
1360;SDS011;674;45.552;-122.600;2023-04-29T05:25:46;6.20;;;2.10;;
1360;SDS011;674;45.552;-122.600;2023-04-29T05:28:15;4.10;;;1.97;;
1360;SDS011;674;45.552;-122.600;2023-04-29T05:30:43;5.07;;;1.90;;
1360;SDS011;674;45.552;-122.600;2023-04-29T05:33:12;3.60;;;2.07;;
1360;SDS011;674;45.552;-122.600;2023-04-29T05:35:41;3.90;;;1.83;;
1360;SDS011;674;45.552;-122.600;2023-04-29T05:38:09;7.33;;;2.10;;
1360;SDS011;674;45.552;-122.600;2023-04-29T05:40:38;3.97;;;2.00;;
1360;SDS011;674;45.552;-122.600;2023-04-29T05:43:07;3.33;;;2.03;;
1360;SDS011;674;45.552;-122.600;2023-04-29T05:45:35;4.00;;;2.20;;
1360;SDS011;674;45.552;-122.600;2023-04-29T05:48:03;6.77;;;2.10;;
1360;SDS011;674;45.552;-122.600;2023-04-29T05:50:33;6.10;;;2.27;;
1360;SDS011;674;45.552;-122.600;2023-04-29T05:53:02;3.80;;;1.97;;
1360;SDS011;674;45.552;-122.600;2023-04-29T05:55:30;4.03;;;2.00;;
1360;SDS011;674;45.552;-122.600;2023-04-29T05:57:59;4.93;;;2.63;;
1360;SDS011;674;45.552;-122.600;2023-04-29T06:00:28;4.13;;;2.20;;
1360;SDS011;674;45.552;-122.600;2023-04-29T06:02:57;5.73;;;1.80;;
1360;SDS011;674;45.552;-122.600;2023-04-29T06:05:26;5.90;;;1.90;;
1360;SDS011;674;45.552;-122.600;2023-04-29T06:07:55;8.27;;;2.40;;
1360;SDS011;674;45.552;-122.600;2023-04-29T06:10:24;4.53;;;2.53;;
1360;SDS011;674;45.552;-122.600;2023-04-29T06:12:53;7.00;;;2.20;;
1360;SDS011;674;45.552;-122.600;2023-04-29T06:15:21;4.07;;;2.20;;
1360;SDS011;674;45.552;-122.600;2023-04-29T06:17:50;4.00;;;2.40;;
1360;SDS011;674;45.552;-122.600;2023-04-29T06:20:18;4.83;;;2.47;;
1360;SDS011;674;45.552;-122.600;2023-04-29T06:22:47;4.60;;;2.50;;
1360;SDS011;674;45.552;-122.600;2023-04-29T06:25:15;4.90;;;2.27;;
1360;SDS011;674;45.552;-122.600;2023-04-29T06:27:44;4.00;;;2.20;;
1360;SDS011;674;45.552;-122.600;2023-04-29T06:30:12;4.63;;;1.83;;
1360;SDS011;674;45.552;-122.600;2023-04-29T06:32:41;5.87;;;2.40;;
1360;SDS011;674;45.552;-122.600;2023-04-29T06:35:09;6.10;;;2.43;;
1360;SDS011;674;45.552;-122.600;2023-04-29T06:37:38;5.77;;;2.27;;
1360;SDS011;674;45.552;-122.600;2023-04-29T06:40:06;4.93;;;2.37;;
1360;SDS011;674;45.552;-122.600;2023-04-29T06:42:35;5.80;;;2.23;;
1360;SDS011;674;45.552;-122.600;2023-04-29T06:45:04;5.83;;;2.10;;
1360;SDS011;674;45.552;-122.600;2023-04-29T06:47:33;4.13;;;2.13;;
1360;SDS011;674;45.552;-122.600;2023-04-29T06:50:01;7.13;;;2.70;;
1360;SDS011;674;45.552;-122.600;2023-04-29T06:52:30;5.03;;;2.20;;
1360;SDS011;674;45.552;-122.600;2023-04-29T06:54:59;7.60;;;2.47;;
1360;SDS011;674;45.552;-122.600;2023-04-29T06:57:28;6.27;;;2.57;;
1360;SDS011;674;45.552;-122.600;2023-04-29T06:59:56;4.00;;;2.10;;
1360;SDS011;674;45.552;-122.600;2023-04-29T07:02:24;6.60;;;2.80;;
1360;SDS011;674;45.552;-122.600;2023-04-29T07:04:53;4.27;;;2.63;;
1360;SDS011;674;45.552;-122.600;2023-04-29T07:07:22;5.10;;;2.77;;
1360;SDS011;674;45.552;-122.600;2023-04-29T07:09:50;3.37;;;1.80;;
1360;SDS011;674;45.552;-122.600;2023-04-29T07:12:20;4.50;;;2.27;;
1360;SDS011;674;45.552;-122.600;2023-04-29T07:14:49;9.50;;;2.70;;
1360;SDS011;674;45.552;-122.600;2023-04-29T07:17:17;5.70;;;2.73;;
1360;SDS011;674;45.552;-122.600;2023-04-29T07:19:47;6.23;;;2.30;;
1360;SDS011;674;45.552;-122.600;2023-04-29T07:22:15;5.83;;;2.40;;
1360;SDS011;674;45.552;-122.600;2023-04-29T07:24:43;3.57;;;2.20;;
1360;SDS011;674;45.552;-122.600;2023-04-29T07:27:12;4.40;;;2.70;;
1360;SDS011;674;45.552;-122.600;2023-04-29T07:29:40;5.70;;;3.20;;
1360;SDS011;674;45.552;-122.600;2023-04-29T07:32:09;6.80;;;3.37;;
1360;SDS011;674;45.552;-122.600;2023-04-29T07:34:37;7.63;;;3.43;;
1360;SDS011;674;45.552;-122.600;2023-04-29T07:37:05;8.77;;;2.93;;
1360;SDS011;674;45.552;-122.600;2023-04-29T07:39:34;4.13;;;2.90;;
1360;SDS011;674;45.552;-122.600;2023-04-29T07:42:03;4.87;;;2.93;;
1360;SDS011;674;45.552;-122.600;2023-04-29T07:44:32;5.17;;;2.57;;
1360;SDS011;674;45.552;-122.600;2023-04-29T07:47:00;3.87;;;2.40;;
1360;SDS011;674;45.552;-122.600;2023-04-29T07:49:29;8.13;;;3.00;;
1360;SDS011;674;45.552;-122.600;2023-04-29T07:51:57;5.20;;;2.93;;
1360;SDS011;674;45.552;-122.600;2023-04-29T07:54:26;6.63;;;3.30;;
1360;SDS011;674;45.552;-122.600;2023-04-29T07:56:56;6.37;;;3.10;;
1360;SDS011;674;45.552;-122.600;2023-04-29T07:59:25;7.50;;;3.57;;
1360;SDS011;674;45.552;-122.600;2023-04-29T08:01:53;7.53;;;3.30;;
1360;SDS011;674;45.552;-122.600;2023-04-29T08:04:22;7.03;;;3.17;;
1360;SDS011;674;45.552;-122.600;2023-04-29T08:06:51;6.60;;;3.17;;
1360;SDS011;674;45.552;-122.600;2023-04-29T08:09:20;6.53;;;3.20;;
1360;SDS011;674;45.552;-122.600;2023-04-29T08:11:48;7.70;;;3.87;;
1360;SDS011;674;45.552;-122.600;2023-04-29T08:14:17;6.60;;;3.40;;
1360;SDS011;674;45.552;-122.600;2023-04-29T08:16:45;8.23;;;3.70;;
1360;SDS011;674;45.552;-122.600;2023-04-29T08:19:14;7.70;;;3.30;;
1360;SDS011;674;45.552;-122.600;2023-04-29T08:21:43;6.13;;;3.20;;
1360;SDS011;674;45.552;-122.600;2023-04-29T08:24:11;7.10;;;3.40;;
1360;SDS011;674;45.552;-122.600;2023-04-29T08:26:40;8.77;;;3.67;;
1360;SDS011;674;45.552;-122.600;2023-04-29T08:29:08;6.03;;;3.10;;
1360;SDS011;674;45.552;-122.600;2023-04-29T08:31:37;6.10;;;2.63;;
1360;SDS011;674;45.552;-122.600;2023-04-29T08:34:05;5.00;;;3.10;;
1360;SDS011;674;45.552;-122.600;2023-04-29T08:36:34;5.30;;;2.93;;
1360;SDS011;674;45.552;-122.600;2023-04-29T08:39:04;6.17;;;3.00;;
1360;SDS011;674;45.552;-122.600;2023-04-29T08:41:33;8.53;;;3.60;;
1360;SDS011;674;45.552;-122.600;2023-04-29T08:44:03;5.83;;;3.00;;
1360;SDS011;674;45.552;-122.600;2023-04-29T08:46:32;6.27;;;2.60;;
1360;SDS011;674;45.552;-122.600;2023-04-29T08:49:01;5.70;;;3.00;;
1360;SDS011;674;45.552;-122.600;2023-04-29T08:51:30;9.07;;;2.73;;
1360;SDS011;674;45.552;-122.600;2023-04-29T08:53:59;4.63;;;3.33;;
1360;SDS011;674;45.552;-122.600;2023-04-29T08:56:27;3.97;;;2.70;;
1360;SDS011;674;45.552;-122.600;2023-04-29T08:58:57;6.80;;;2.90;;
1360;SDS011;674;45.552;-122.600;2023-04-29T09:01:28;4.20;;;2.87;;
1360;SDS011;674;45.552;-122.600;2023-04-29T09:04:03;4.30;;;2.30;;
1360;SDS011;674;45.552;-122.600;2023-04-29T09:06:58;4.37;;;2.77;;
1360;SDS011;674;45.552;-122.600;2023-04-29T09:09:27;4.57;;;3.13;;
1360;SDS011;674;45.552;-122.600;2023-04-29T09:11:56;7.00;;;2.47;;
1360;SDS011;674;45.552;-122.600;2023-04-29T09:14:25;5.03;;;2.80;;
1360;SDS011;674;45.552;-122.600;2023-04-29T09:16:55;6.57;;;3.13;;
1360;SDS011;674;45.552;-122.600;2023-04-29T09:19:33;4.70;;;2.60;;
1360;SDS011;674;45.552;-122.600;2023-04-29T09:22:03;3.83;;;2.43;;
1360;SDS011;674;45.552;-122.600;2023-04-29T09:24:34;5.40;;;2.90;;
1360;SDS011;674;45.552;-122.600;2023-04-29T09:27:02;9.83;;;3.00;;
1360;SDS011;674;45.552;-122.600;2023-04-29T09:29:31;4.30;;;2.77;;
1360;SDS011;674;45.552;-122.600;2023-04-29T09:32:15;4.30;;;2.40;;
1360;SDS011;674;45.552;-122.600;2023-04-29T09:34:47;4.17;;;2.30;;
1360;SDS011;674;45.552;-122.600;2023-04-29T09:37:25;7.13;;;2.43;;
1360;SDS011;674;45.552;-122.600;2023-04-29T09:39:54;5.40;;;2.77;;
1360;SDS011;674;45.552;-122.600;2023-04-29T09:42:22;5.13;;;2.83;;
1360;SDS011;674;45.552;-122.600;2023-04-29T09:44:51;3.83;;;2.50;;
1360;SDS011;674;45.552;-122.600;2023-04-29T09:47:28;5.43;;;2.47;;
1360;SDS011;674;45.552;-122.600;2023-04-29T09:50:09;6.77;;;2.60;;
1360;SDS011;674;45.552;-122.600;2023-04-29T09:52:42;5.03;;;2.27;;
1360;SDS011;674;45.552;-122.600;2023-04-29T09:55:11;4.53;;;2.30;;
1360;SDS011;674;45.552;-122.600;2023-04-29T09:57:41;6.30;;;2.40;;
1360;SDS011;674;45.552;-122.600;2023-04-29T10:00:12;3.97;;;2.50;;
1360;SDS011;674;45.552;-122.600;2023-04-29T10:02:41;3.80;;;2.07;;
1360;SDS011;674;45.552;-122.600;2023-04-29T10:05:13;3.53;;;2.23;;
1360;SDS011;674;45.552;-122.600;2023-04-29T10:07:43;5.93;;;2.43;;
1360;SDS011;674;45.552;-122.600;2023-04-29T10:10:17;7.90;;;2.47;;
1360;SDS011;674;45.552;-122.600;2023-04-29T10:12:47;5.00;;;2.53;;
1360;SDS011;674;45.552;-122.600;2023-04-29T10:20:44;3.53;;;1.93;;
1360;SDS011;674;45.552;-122.600;2023-04-29T10:23:15;5.10;;;2.30;;
1360;SDS011;674;45.552;-122.600;2023-04-29T10:25:46;6.60;;;2.50;;
1360;SDS011;674;45.552;-122.600;2023-04-29T10:28:17;4.43;;;2.63;;
1360;SDS011;674;45.552;-122.600;2023-04-29T10:30:51;5.03;;;1.80;;
1360;SDS011;674;45.552;-122.600;2023-04-29T10:33:21;4.10;;;2.37;;
1360;SDS011;674;45.552;-122.600;2023-04-29T10:35:50;4.63;;;1.80;;
1360;SDS011;674;45.552;-122.600;2023-04-29T10:41:03;5.40;;;2.57;;
1360;SDS011;674;45.552;-122.600;2023-04-29T10:43:41;5.10;;;2.70;;
1360;SDS011;674;45.552;-122.600;2023-04-29T10:48:46;6.50;;;2.43;;
1360;SDS011;674;45.552;-122.600;2023-04-29T10:51:32;5.30;;;2.20;;
1360;SDS011;674;45.552;-122.600;2023-04-29T10:54:14;4.93;;;2.63;;
1360;SDS011;674;45.552;-122.600;2023-04-29T10:59:13;4.60;;;2.20;;
1360;SDS011;674;45.552;-122.600;2023-04-29T11:01:43;4.50;;;2.37;;
1360;SDS011;674;45.552;-122.600;2023-04-29T11:04:17;7.23;;;2.90;;
1360;SDS011;674;45.552;-122.600;2023-04-29T11:06:56;4.33;;;2.53;;
1360;SDS011;674;45.552;-122.600;2023-04-29T11:09:26;5.47;;;3.33;;
1360;SDS011;674;45.552;-122.600;2023-04-29T11:11:57;4.87;;;3.40;;
1360;SDS011;674;45.552;-122.600;2023-04-29T11:14:42;5.10;;;3.60;;
1360;SDS011;674;45.552;-122.600;2023-04-29T11:17:17;4.80;;;3.10;;
1360;SDS011;674;45.552;-122.600;2023-04-29T11:19:51;4.77;;;2.83;;
1360;SDS011;674;45.552;-122.600;2023-04-29T11:24:58;8.83;;;3.10;;
1360;SDS011;674;45.552;-122.600;2023-04-29T11:27:33;4.93;;;2.70;;
1360;SDS011;674;45.552;-122.600;2023-04-29T11:30:04;4.83;;;2.73;;
1360;SDS011;674;45.552;-122.600;2023-04-29T11:32:37;3.90;;;2.67;;
1360;SDS011;674;45.552;-122.600;2023-04-29T11:35:07;7.80;;;2.87;;
1360;SDS011;674;45.552;-122.600;2023-04-29T11:37:42;8.27;;;3.30;;
1360;SDS011;674;45.552;-122.600;2023-04-29T11:40:12;7.60;;;2.83;;
1360;SDS011;674;45.552;-122.600;2023-04-29T11:42:45;5.03;;;2.90;;
1360;SDS011;674;45.552;-122.600;2023-04-29T11:45:18;5.27;;;2.53;;
1360;SDS011;674;45.552;-122.600;2023-04-29T11:47:47;6.37;;;3.00;;
1360;SDS011;674;45.552;-122.600;2023-04-29T11:50:18;3.57;;;2.10;;
1360;SDS011;674;45.552;-122.600;2023-04-29T11:52:46;4.43;;;3.00;;
1360;SDS011;674;45.552;-122.600;2023-04-29T11:55:16;6.40;;;2.73;;
1360;SDS011;674;45.552;-122.600;2023-04-29T11:57:47;4.20;;;2.70;;
1360;SDS011;674;45.552;-122.600;2023-04-29T12:00:18;4.17;;;2.60;;
1360;SDS011;674;45.552;-122.600;2023-04-29T12:02:47;8.03;;;2.70;;
1360;SDS011;674;45.552;-122.600;2023-04-29T12:05:16;5.90;;;2.97;;
1360;SDS011;674;45.552;-122.600;2023-04-29T12:07:45;4.30;;;2.40;;
1360;SDS011;674;45.552;-122.600;2023-04-29T12:10:17;5.80;;;2.67;;
1360;SDS011;674;45.552;-122.600;2023-04-29T12:12:47;3.47;;;2.10;;
1360;SDS011;674;45.552;-122.600;2023-04-29T12:15:15;7.00;;;2.80;;
1360;SDS011;674;45.552;-122.600;2023-04-29T12:17:44;5.10;;;2.40;;
1360;SDS011;674;45.552;-122.600;2023-04-29T12:20:13;3.93;;;2.50;;
1360;SDS011;674;45.552;-122.600;2023-04-29T12:22:42;5.60;;;2.80;;
1360;SDS011;674;45.552;-122.600;2023-04-29T12:25:11;4.73;;;2.50;;
1360;SDS011;674;45.552;-122.600;2023-04-29T12:27:39;5.50;;;2.87;;
1360;SDS011;674;45.552;-122.600;2023-04-29T12:30:09;4.33;;;2.40;;
1360;SDS011;674;45.552;-122.600;2023-04-29T12:32:38;5.70;;;2.63;;
1360;SDS011;674;45.552;-122.600;2023-04-29T12:35:14;5.90;;;3.17;;
1360;SDS011;674;45.552;-122.600;2023-04-29T12:37:46;4.93;;;3.37;;
1360;SDS011;674;45.552;-122.600;2023-04-29T12:40:16;5.37;;;2.47;;
1360;SDS011;674;45.552;-122.600;2023-04-29T12:42:46;5.30;;;2.57;;
1360;SDS011;674;45.552;-122.600;2023-04-29T12:48:13;4.63;;;2.40;;
1360;SDS011;674;45.552;-122.600;2023-04-29T12:50:55;4.77;;;3.03;;
1360;SDS011;674;45.552;-122.600;2023-04-29T12:53:26;5.43;;;3.00;;
1360;SDS011;674;45.552;-122.600;2023-04-29T12:55:56;5.07;;;2.33;;
1360;SDS011;674;45.552;-122.600;2023-04-29T12:58:28;5.07;;;2.70;;
1360;SDS011;674;45.552;-122.600;2023-04-29T13:00:57;4.80;;;2.70;;
1360;SDS011;674;45.552;-122.600;2023-04-29T13:03:26;6.57;;;2.60;;
1360;SDS011;674;45.552;-122.600;2023-04-29T13:05:54;13.97;;;3.37;;
1360;SDS011;674;45.552;-122.600;2023-04-29T13:08:23;5.43;;;2.60;;
1360;SDS011;674;45.552;-122.600;2023-04-29T13:10:51;5.60;;;3.07;;
1360;SDS011;674;45.552;-122.600;2023-04-29T13:13:20;5.93;;;2.87;;
1360;SDS011;674;45.552;-122.600;2023-04-29T13:15:48;6.10;;;3.40;;
1360;SDS011;674;45.552;-122.600;2023-04-29T13:18:17;3.90;;;2.50;;
1360;SDS011;674;45.552;-122.600;2023-04-29T13:20:45;5.20;;;2.73;;
1360;SDS011;674;45.552;-122.600;2023-04-29T13:23:13;5.40;;;3.23;;
1360;SDS011;674;45.552;-122.600;2023-04-29T13:25:42;4.50;;;2.90;;
1360;SDS011;674;45.552;-122.600;2023-04-29T13:28:11;5.13;;;3.20;;
1360;SDS011;674;45.552;-122.600;2023-04-29T13:30:40;4.97;;;2.90;;
1360;SDS011;674;45.552;-122.600;2023-04-29T13:33:08;6.63;;;3.10;;
1360;SDS011;674;45.552;-122.600;2023-04-29T13:35:39;5.30;;;3.00;;
1360;SDS011;674;45.552;-122.600;2023-04-29T13:38:07;7.27;;;3.10;;
1360;SDS011;674;45.552;-122.600;2023-04-29T13:40:36;4.60;;;2.67;;
1360;SDS011;674;45.552;-122.600;2023-04-29T13:43:12;5.07;;;2.80;;
1360;SDS011;674;45.552;-122.600;2023-04-29T13:45:54;6.77;;;2.93;;
1360;SDS011;674;45.552;-122.600;2023-04-29T13:48:23;6.80;;;2.93;;
1360;SDS011;674;45.552;-122.600;2023-04-29T13:50:57;3.80;;;2.30;;
1360;SDS011;674;45.552;-122.600;2023-04-29T13:53:28;4.63;;;2.63;;
1360;SDS011;674;45.552;-122.600;2023-04-29T13:56:00;5.57;;;2.70;;
1360;SDS011;674;45.552;-122.600;2023-04-29T13:58:31;7.00;;;2.57;;
1360;SDS011;674;45.552;-122.600;2023-04-29T14:01:20;5.70;;;2.87;;
1360;SDS011;674;45.552;-122.600;2023-04-29T14:04:08;5.73;;;3.10;;
1360;SDS011;674;45.552;-122.600;2023-04-29T14:06:38;5.90;;;2.77;;
1360;SDS011;674;45.552;-122.600;2023-04-29T14:09:06;4.37;;;2.77;;
1360;SDS011;674;45.552;-122.600;2023-04-29T14:11:34;8.00;;;2.93;;
1360;SDS011;674;45.552;-122.600;2023-04-29T14:14:03;4.57;;;2.63;;
1360;SDS011;674;45.552;-122.600;2023-04-29T14:16:32;4.50;;;2.50;;
1360;SDS011;674;45.552;-122.600;2023-04-29T14:19:00;5.83;;;2.40;;
1360;SDS011;674;45.552;-122.600;2023-04-29T14:21:30;5.43;;;2.70;;
1360;SDS011;674;45.552;-122.600;2023-04-29T14:23:59;7.10;;;2.63;;
1360;SDS011;674;45.552;-122.600;2023-04-29T14:26:29;5.07;;;2.60;;
1360;SDS011;674;45.552;-122.600;2023-04-29T14:28:58;6.87;;;2.63;;
1360;SDS011;674;45.552;-122.600;2023-04-29T14:31:28;5.00;;;1.97;;
1360;SDS011;674;45.552;-122.600;2023-04-29T14:34:01;5.03;;;2.30;;
1360;SDS011;674;45.552;-122.600;2023-04-29T14:36:29;6.13;;;2.70;;
1360;SDS011;674;45.552;-122.600;2023-04-29T14:39:01;6.20;;;2.83;;
1360;SDS011;674;45.552;-122.600;2023-04-29T14:41:30;7.30;;;3.47;;
1360;SDS011;674;45.552;-122.600;2023-04-29T14:43:58;4.53;;;2.10;;
1360;SDS011;674;45.552;-122.600;2023-04-29T14:46:27;3.97;;;2.73;;
1360;SDS011;674;45.552;-122.600;2023-04-29T14:48:58;6.77;;;2.70;;
1360;SDS011;674;45.552;-122.600;2023-04-29T14:51:26;6.70;;;3.23;;
1360;SDS011;674;45.552;-122.600;2023-04-29T14:53:55;5.57;;;2.80;;
1360;SDS011;674;45.552;-122.600;2023-04-29T14:56:24;5.10;;;2.70;;
1360;SDS011;674;45.552;-122.600;2023-04-29T14:58:53;6.17;;;2.70;;
1360;SDS011;674;45.552;-122.600;2023-04-29T15:01:22;5.20;;;2.30;;
1360;SDS011;674;45.552;-122.600;2023-04-29T15:03:52;3.83;;;2.37;;
1360;SDS011;674;45.552;-122.600;2023-04-29T15:06:21;3.00;;;2.03;;
1360;SDS011;674;45.552;-122.600;2023-04-29T15:08:49;5.50;;;2.70;;
1360;SDS011;674;45.552;-122.600;2023-04-29T15:11:17;5.20;;;1.90;;
1360;SDS011;674;45.552;-122.600;2023-04-29T15:13:46;4.07;;;2.20;;
1360;SDS011;674;45.552;-122.600;2023-04-29T15:16:15;7.43;;;2.50;;
1360;SDS011;674;45.552;-122.600;2023-04-29T15:18:44;4.37;;;2.10;;
1360;SDS011;674;45.552;-122.600;2023-04-29T15:21:12;4.33;;;2.07;;
1360;SDS011;674;45.552;-122.600;2023-04-29T15:23:41;4.60;;;2.07;;
1360;SDS011;674;45.552;-122.600;2023-04-29T15:26:10;3.33;;;2.00;;
1360;SDS011;674;45.552;-122.600;2023-04-29T15:28:38;5.20;;;2.17;;
1360;SDS011;674;45.552;-122.600;2023-04-29T15:31:07;4.63;;;1.90;;
1360;SDS011;674;45.552;-122.600;2023-04-29T15:33:35;5.17;;;2.13;;
1360;SDS011;674;45.552;-122.600;2023-04-29T15:36:05;3.00;;;1.83;;
1360;SDS011;674;45.552;-122.600;2023-04-29T15:38:34;4.17;;;2.40;;
1360;SDS011;674;45.552;-122.600;2023-04-29T15:41:02;5.07;;;2.60;;
1360;SDS011;674;45.552;-122.600;2023-04-29T15:43:31;3.03;;;1.93;;
1360;SDS011;674;45.552;-122.600;2023-04-29T15:46:00;3.23;;;1.77;;
1360;SDS011;674;45.552;-122.600;2023-04-29T15:48:29;3.50;;;1.90;;